METAR AND TAF INFORMATION
METAR FOR UAAA
ADDS - METARS form results

(1216 UTC 15 October 2019)
Data provider http://aviationweather.gov/metar/data/
 
METAR text: UAAA 151200Z 01002MPS 9999 SCT050 BKN100 13/04 Q1029 R88/65D NOSIG
Conditions at: UAAA (ALMA-ATA , KZ) observed 1200 UTC 15 October 2019
Temperature: 13.0°C (55°F)
Dewpoint: 4.0°C (39°F) [RH = 54%]
Pressure (altimeter): 30.38 inches Hg (1029.0 mb)
Winds: from the N (10 degrees) at 5 MPH (4 knots; 2.1 m/s)
Visibility: 6 or more miles (10+ km)
Ceiling: 10000 feet AGL
Clouds: scattered clouds at 5000 feet AGL
broken clouds at 10000 feet AGL
Weather: no significant weather observed at this time

METAR text: UAAA 151130Z 02002MPS 9999 SCT050 BKN100 14/05 Q1029 R88/65D NOSIG
Conditions at: UAAA (ALMA-ATA , KZ) observed 1130 UTC 15 October 2019
Temperature: 14.0°C (57°F)
Dewpoint: 5.0°C (41°F) [RH = 55%]
Pressure (altimeter): 30.38 inches Hg (1029.0 mb)
Winds: from the NNE (20 degrees) at 5 MPH (4 knots; 2.1 m/s)
Visibility: 6 or more miles (10+ km)
Ceiling: 10000 feet AGL
Clouds: scattered clouds at 5000 feet AGL
broken clouds at 10000 feet AGL
Weather: no significant weather observed at this time

Forecast for: UAAA (ALMA-ATA , KZ)
Text: TAF UAAA 151100Z 1512/1612 16004MPS 9999 SCT050CB BKN100 TX18/1608Z TN02/1601Z
Forecast period: 1200 UTC 15 October 2019 to 0200 UTC 16 October 2019
Forecast type: FROM: standard forecast or significant change
Winds: from the SSE (160 degrees) at 9 MPH (8 knots; 4.1 m/s)
Visibility: 6 or more miles 10+ km)
Ceiling: 10000 feet AGL
Clouds: scattered clouds at 5000 feet AGL
broken clouds at 10000 feet AGL
Weather: no significant weather forecast for this period
Text: TEMPO 1512/1524 3100 BR FU
Forecast period: 1200 UTC 15 October 2019 to 0000 UTC 16 October 2019
Forecast type: TEMPORARY: The following changes expected for less than half the time period
Visibility: 1.93 miles (3.11 km)
Ceiling: unknown
Clouds: missing
Weather: BR FU  (mist, smoke)
Text: BECMG 1602/1603 04003G08MPS
Forecast period: 0200 to 1200 UTC 16 October 2019
Forecast type: BECOMING: Conditions expected to become as follows by 0300 UTC 16 October 2019
Winds: from the NE (40 degrees) at 7 MPH (6 knots; 3.1 m/s)
gusting to 18 MPH (16 knots; 8.2 m/s)
Visibility: 6 or more miles 10+ km)
Ceiling: 10000 feet AGL
Clouds: scattered clouds at 5000 feet AGL
broken clouds at 10000 feet AGL
Weather: no significant weather forecast for this period

 AIRPORT MAP

 RUNWAY INFORMATION

 AIRPORT FREQUENCIES
Type APP Name APP Frequency 131.6 MHZ
Type ATIS Name ATIS Frequency 129.8 MHZ
Type GCA Name RADAR Frequency 120.8 MHZ
Type GND Name GND Frequency 121.7 MHZ
Type TWR Name TWR Frequency 119.4 MHZ

 AIRPORT NEAR NAVIGATION AIDS
Type NDB Name Almaty Frequency 443 KHZ
Type VOR-DME Name Almaty Frequency 112300 KHZ
Type NDB Name Almaty Frequency 415 KHZ



2018 Air Astana Virtual Airline